createdAt,value
2022-11-09T00:00:43.835Z,49.95
2022-11-09T00:01:45.144Z,64.13
2022-11-09T00:02:44.260Z,59.46
2022-11-09T00:03:49.292Z,62.84
2022-11-09T00:04:47.732Z,56.88
2022-11-09T00:05:45.690Z,58.01
2022-11-09T00:06:45.888Z,64.45
2022-11-09T00:07:45.250Z,60.42
2022-11-09T00:08:48.141Z,54.14
2022-11-09T00:09:43.647Z,55.43
2022-11-09T00:10:45.297Z,49.47
2022-11-09T00:11:44.572Z,51.24
2022-11-09T00:12:45.800Z,48.82
2022-11-09T00:13:43.650Z,60.91
2022-11-09T00:14:48.125Z,59.94
2022-11-09T00:15:43.842Z,47.21
2022-11-09T00:16:44.778Z,51.08
2022-11-09T00:17:44.072Z,58.49
2022-11-09T00:18:49.933Z,61.07
2022-11-09T00:19:44.770Z,59.94
2022-11-09T00:20:47.610Z,47.21
2022-11-09T00:21:44.507Z,56.40
2022-11-09T00:22:46.992Z,57.20
2022-11-09T00:23:44.870Z,50.11
2022-11-09T00:24:44.315Z,53.01
2022-11-09T00:25:45.538Z,62.20
2022-11-09T00:26:44.437Z,44.63
2022-11-09T00:27:46.216Z,45.92
2022-11-09T00:28:43.419Z,55.43
2022-11-09T00:29:44.478Z,46.25
2022-11-09T00:30:45.822Z,53.82
2022-11-09T00:31:49.018Z,52.21
2022-11-09T00:32:47.654Z,48.82
2022-11-09T00:33:44.727Z,48.50
2022-11-09T00:34:45.544Z,48.66
2022-11-09T00:35:43.435Z,61.07
2022-11-09T00:36:43.534Z,57.36
2022-11-09T00:37:43.504Z,60.91
2022-11-09T00:38:43.958Z,54.62
2022-11-09T00:39:44.912Z,61.55
2022-11-09T00:40:43.267Z,52.37
2022-11-09T00:41:44.523Z,48.50
2022-11-09T00:42:43.757Z,57.20
2022-11-09T00:43:43.669Z,46.73
2022-11-09T00:44:46.413Z,49.95
2022-11-09T00:45:44.463Z,54.62
2022-11-09T00:46:43.215Z,47.05
2022-11-09T00:47:43.200Z,44.79
2022-11-09T00:48:44.384Z,53.01
2022-11-09T00:49:45.215Z,47.37
2022-11-09T00:50:45.524Z,49.15
2022-11-09T00:51:44.536Z,54.14
2022-11-09T00:52:44.991Z,56.24
2022-11-09T00:53:45.469Z,47.70
2022-11-09T00:54:45.148Z,45.92
2022-11-09T00:55:44.042Z,59.78
2022-11-09T00:56:44.034Z,65.42
2022-11-09T00:57:44.712Z,55.59
2022-11-09T00:58:43.087Z,57.85
2022-11-09T00:59:44.625Z,59.62
2022-11-09T01:00:44.066Z,45.12
2022-11-09T01:01:45.368Z,46.57
2022-11-09T01:02:44.741Z,52.85
2022-11-09T01:03:45.650Z,46.25
2022-11-09T01:04:43.838Z,45.44
2022-11-09T01:05:43.008Z,47.37
2022-11-09T01:06:43.026Z,47.70
2022-11-09T01:07:42.958Z,60.26
2022-11-09T01:08:43.385Z,51.88
2022-11-09T01:09:44.988Z,49.79
2022-11-09T01:10:44.182Z,46.08
2022-11-09T01:11:46.536Z,45.76
2022-11-09T01:12:44.817Z,44.31
2022-11-09T01:13:45.281Z,46.73
2022-11-09T01:14:42.977Z,43.18
2022-11-09T01:15:45.381Z,44.31
2022-11-09T01:16:43.946Z,50.92
2022-11-09T01:17:42.919Z,47.70
2022-11-09T01:18:43.869Z,46.25
2022-11-09T01:19:43.231Z,55.75
2022-11-09T01:20:44.388Z,45.28
2022-11-09T01:21:46.673Z,56.24
2022-11-09T01:22:46.727Z,47.21
2022-11-09T01:23:43.709Z,60.10
2022-11-09T01:24:44.901Z,60.59
2022-11-09T01:25:45.385Z,57.85
2022-11-09T01:26:42.727Z,63.49
2022-11-09T01:27:44.241Z,52.53
2022-11-09T01:28:44.806Z,49.15
2022-11-09T01:29:44.216Z,50.43
2022-11-09T01:30:43.930Z,55.75
2022-11-09T01:31:45.216Z,60.42
2022-11-09T01:32:43.382Z,48.98
2022-11-09T01:33:44.190Z,45.28
2022-11-09T01:34:45.238Z,53.82
2022-11-09T01:35:43.804Z,60.42
2022-11-09T01:36:45.469Z,48.50
2022-11-09T01:37:46.506Z,46.73
2022-11-09T01:38:43.939Z,46.25
2022-11-09T01:39:46.564Z,49.79
2022-11-09T01:40:44.562Z,48.34
2022-11-09T01:41:44.954Z,57.85
2022-11-09T01:42:44.790Z,50.43
2022-11-09T01:43:47.249Z,50.76
2022-11-09T01:44:45.076Z,54.79
2022-11-09T01:45:42.830Z,48.50
2022-11-09T01:46:43.470Z,48.82
2022-11-09T01:47:45.302Z,55.75
2022-11-09T01:48:42.558Z,50.27
2022-11-09T01:49:45.456Z,52.85
2022-11-09T01:50:43.587Z,58.01
2022-11-09T01:51:44.643Z,51.88
2022-11-09T01:52:42.479Z,58.81
2022-11-09T01:53:42.909Z,58.65
2022-11-09T01:54:44.887Z,58.81
2022-11-09T01:55:42.971Z,62.68
2022-11-09T01:56:42.342Z,61.07
2022-11-09T01:57:42.365Z,54.62
2022-11-09T01:58:42.919Z,55.91
2022-11-09T01:59:42.924Z,52.69
2022-11-09T02:00:43.303Z,59.30
2022-11-09T02:01:43.698Z,62.68
2022-11-09T02:02:43.375Z,58.49
2022-11-09T02:03:45.207Z,49.63
2022-11-09T02:04:42.531Z,65.26
2022-11-09T02:05:43.111Z,61.87
2022-11-09T02:06:44.485Z,52.53
2022-11-09T02:07:44.155Z,58.33
2022-11-09T02:08:42.261Z,50.60
2022-11-09T02:09:42.671Z,56.24
2022-11-09T02:10:45.664Z,60.10
2022-11-09T02:11:42.646Z,62.84
2022-11-09T02:12:42.231Z,59.94
2022-11-09T02:13:42.302Z,49.15
2022-11-09T02:14:42.136Z,58.17
2022-11-09T02:15:45.877Z,55.75
2022-11-09T02:16:44.139Z,53.66
2022-11-09T02:17:42.350Z,55.11
2022-11-09T02:18:43.147Z,53.82
2022-11-09T02:19:44.564Z,50.11
2022-11-09T02:20:42.599Z,56.88
2022-11-09T02:21:42.912Z,65.42
2022-11-09T02:22:43.781Z,52.05
2022-11-09T02:23:43.887Z,55.27
2022-11-09T02:24:43.440Z,59.30
2022-11-09T02:25:42.584Z,64.61
2022-11-09T02:26:42.065Z,55.43
2022-11-09T02:27:42.128Z,60.10
2022-11-09T02:28:42.119Z,63.16
2022-11-09T02:29:42.067Z,50.43
2022-11-09T02:30:42.003Z,57.04
2022-11-09T02:31:42.055Z,59.78
2022-11-09T02:32:42.072Z,58.81
2022-11-09T02:33:42.026Z,50.27
2022-11-09T02:34:41.976Z,52.37
2022-11-09T02:35:41.949Z,51.08
2022-11-09T02:36:41.968Z,56.24
2022-11-09T02:37:41.904Z,51.08
2022-11-09T02:38:42.747Z,51.72
2022-11-09T02:39:41.875Z,65.10
2022-11-09T02:40:43.879Z,55.59
2022-11-09T02:41:43.288Z,50.27
2022-11-09T02:42:41.896Z,55.91
2022-11-09T02:43:41.819Z,65.26
2022-11-09T02:44:42.048Z,53.17
2022-11-09T02:45:41.990Z,52.53
2022-11-09T02:46:41.871Z,49.79
2022-11-09T02:47:42.182Z,54.46
2022-11-09T02:48:41.794Z,62.52
2022-11-09T02:49:41.815Z,64.29
2022-11-09T02:50:41.769Z,60.59
2022-11-09T02:51:41.755Z,56.88
2022-11-09T02:52:44.157Z,58.33
2022-11-09T02:53:44.272Z,57.52
2022-11-09T02:54:42.120Z,50.60
2022-11-09T02:55:43.622Z,49.47
2022-11-09T02:56:43.491Z,60.75
2022-11-09T02:57:43.222Z,47.37
2022-11-09T02:58:42.356Z,47.53
2022-11-09T02:59:41.797Z,52.69
2022-11-09T03:00:41.710Z,56.07
2022-11-09T03:01:41.773Z,57.36
2022-11-09T03:02:43.797Z,49.15
2022-11-09T03:03:41.901Z,56.40
2022-11-09T03:04:41.768Z,52.37
2022-11-09T03:05:44.749Z,50.43
2022-11-09T03:06:43.785Z,66.55
2022-11-09T03:07:43.926Z,62.36
2022-11-09T03:08:42.980Z,50.11
2022-11-09T03:09:43.887Z,49.95
2022-11-09T03:10:45.333Z,54.46
2022-11-09T03:11:44.006Z,56.07
2022-11-09T03:12:41.901Z,65.26
2022-11-09T03:13:44.035Z,50.76
2022-11-09T03:14:43.985Z,55.27
2022-11-09T03:15:41.481Z,57.85
2022-11-09T03:16:46.501Z,51.72
2022-11-09T03:17:42.808Z,51.56
2022-11-09T03:18:43.537Z,53.66
2022-11-09T03:19:41.486Z,60.42
2022-11-09T03:20:42.637Z,59.62
2022-11-09T03:21:41.451Z,59.62
2022-11-09T03:22:43.630Z,64.61
2022-11-09T03:23:41.444Z,62.20
2022-11-09T03:24:42.904Z,54.79
2022-11-09T03:25:42.221Z,57.04
2022-11-09T03:26:41.601Z,59.78
2022-11-09T03:27:41.599Z,49.95
2022-11-09T03:28:41.392Z,49.63
2022-11-09T03:29:44.117Z,65.90
2022-11-09T03:30:41.744Z,59.78
2022-11-09T03:31:41.400Z,67.51
2022-11-09T03:32:41.336Z,61.55
2022-11-09T03:33:41.298Z,56.24
2022-11-09T03:34:41.344Z,65.10
2022-11-09T03:35:41.286Z,63.33
2022-11-09T03:36:43.372Z,66.71
2022-11-09T03:37:41.515Z,68.64
2022-11-09T03:38:42.237Z,65.42
2022-11-09T03:39:41.299Z,63.33
2022-11-09T03:40:41.429Z,62.84
2022-11-09T03:41:41.668Z,61.23
2022-11-09T03:42:41.233Z,61.87
2022-11-09T03:43:41.808Z,60.91
2022-11-09T03:44:42.235Z,57.52
2022-11-09T03:45:41.583Z,65.58
2022-11-09T03:46:41.957Z,59.62
2022-11-09T03:47:41.283Z,55.43
2022-11-09T03:48:41.578Z,59.46
2022-11-09T03:49:41.892Z,55.27
2022-11-09T03:50:41.152Z,63.00
2022-11-09T03:51:41.303Z,58.17
2022-11-09T03:52:41.369Z,59.94
2022-11-09T03:53:41.101Z,67.68
2022-11-09T03:54:41.094Z,64.45
2022-11-09T03:55:41.920Z,61.39
2022-11-09T03:56:41.204Z,59.14
2022-11-09T03:57:42.029Z,64.94
2022-11-09T03:58:41.067Z,68.16
2022-11-09T03:59:41.845Z,66.87
2022-11-09T04:00:41.269Z,66.71
2022-11-09T04:01:41.422Z,68.48
2022-11-09T04:02:41.293Z,66.71
2022-11-09T04:03:42.320Z,67.03
2022-11-09T04:04:42.497Z,67.68
2022-11-09T04:05:41.648Z,68.16
2022-11-09T04:06:41.104Z,69.13
2022-11-09T04:07:47.193Z,61.23
2022-11-09T04:08:47.014Z,67.68
2022-11-09T04:09:43.049Z,68.32
2022-11-09T04:10:40.917Z,69.93
2022-11-09T04:11:42.494Z,63.97
2022-11-09T04:12:41.145Z,64.61
2022-11-09T04:13:42.495Z,59.30
2022-11-09T04:14:41.662Z,63.65
2022-11-09T04:15:41.864Z,66.71
2022-11-09T04:16:40.848Z,67.51
2022-11-09T04:17:42.521Z,64.61
2022-11-09T04:18:42.224Z,70.09
2022-11-09T04:19:41.846Z,68.64
2022-11-09T04:20:40.882Z,70.74
2022-11-09T04:21:40.866Z,67.51
2022-11-09T04:22:41.635Z,66.23
2022-11-09T04:23:40.780Z,67.68
2022-11-09T04:24:40.798Z,68.48
2022-11-09T04:25:41.120Z,67.68
2022-11-09T04:26:41.370Z,67.84
2022-11-09T04:27:41.065Z,71.70
2022-11-09T04:28:41.589Z,73.48
2022-11-09T04:29:40.722Z,69.29
2022-11-09T04:30:41.065Z,68.80
2022-11-09T04:31:40.709Z,71.70
2022-11-09T04:32:40.688Z,71.54
2022-11-09T04:33:40.696Z,71.54
2022-11-09T04:34:45.563Z,69.45
2022-11-09T04:35:41.677Z,71.87
2022-11-09T04:36:40.647Z,70.74
2022-11-09T04:37:40.655Z,71.54
2022-11-09T04:38:41.401Z,71.87
2022-11-09T04:39:41.155Z,72.51
2022-11-09T04:40:40.856Z,70.58
2022-11-09T04:41:40.611Z,72.51
2022-11-09T04:42:40.564Z,73.48
2022-11-09T04:43:41.562Z,70.25
2022-11-09T04:44:41.192Z,72.67
2022-11-09T04:45:41.873Z,70.25
2022-11-09T04:46:40.541Z,70.58
2022-11-09T04:47:40.528Z,72.99
2022-11-09T04:48:40.607Z,72.51
2022-11-09T04:49:40.820Z,71.70
2022-11-09T04:50:40.507Z,71.87
2022-11-09T04:51:40.507Z,73.80
2022-11-09T04:52:43.155Z,72.99
2022-11-09T04:53:41.240Z,73.48
2022-11-09T04:54:40.456Z,72.35
2022-11-09T04:55:40.467Z,71.22
2022-11-09T04:56:40.417Z,72.83
2022-11-09T04:57:40.452Z,72.99
2022-11-09T04:58:40.437Z,71.87
2022-11-09T04:59:40.395Z,71.06
2022-11-09T05:00:40.367Z,71.06
2022-11-09T05:01:40.380Z,72.19
2022-11-09T05:02:40.468Z,70.74
2022-11-09T05:03:40.422Z,72.19
2022-11-09T05:04:40.364Z,73.96
2022-11-09T05:05:45.461Z,72.19
2022-11-09T05:06:41.437Z,72.83
2022-11-09T05:07:40.323Z,71.54
2022-11-09T05:08:40.338Z,76.05
2022-11-09T05:09:40.335Z,75.89
2022-11-09T05:10:40.331Z,72.35
2022-11-09T05:11:40.391Z,73.32
2022-11-09T05:12:44.784Z,73.48
2022-11-09T05:13:41.279Z,73.64
2022-11-09T05:14:40.340Z,73.64
2022-11-09T05:15:40.243Z,68.96
2022-11-09T05:16:41.352Z,73.80
2022-11-09T05:17:40.427Z,74.28
2022-11-09T05:18:40.346Z,74.77
2022-11-09T05:19:40.251Z,73.32
2022-11-09T05:20:40.219Z,71.70
2022-11-09T05:21:40.163Z,76.86
2022-11-09T05:22:40.236Z,74.12
2022-11-09T05:23:40.203Z,75.57
2022-11-09T05:24:40.177Z,73.80
2022-11-09T05:25:40.289Z,72.83
2022-11-09T05:26:40.135Z,75.41
2022-11-09T05:27:40.272Z,74.77
2022-11-09T05:28:42.913Z,71.87
2022-11-09T05:29:40.111Z,74.60
2022-11-09T05:30:40.143Z,72.99
2022-11-09T05:31:40.065Z,73.48
2022-11-09T05:32:40.140Z,74.77
2022-11-09T05:33:40.072Z,74.60
2022-11-09T05:34:40.068Z,73.48
2022-11-09T05:35:40.043Z,73.96
2022-11-09T05:36:40.173Z,75.89
2022-11-09T05:37:40.047Z,76.22
2022-11-09T05:38:40.067Z,74.28
2022-11-09T05:39:40.041Z,73.96
2022-11-09T05:40:39.996Z,76.05
2022-11-09T05:41:40.000Z,75.09
2022-11-09T05:42:39.996Z,74.44
2022-11-09T05:43:39.980Z,75.09
2022-11-09T05:44:40.017Z,74.77
2022-11-09T05:45:43.060Z,73.64
2022-11-09T05:46:40.987Z,73.48
2022-11-09T05:47:39.951Z,76.70
2022-11-09T05:48:39.938Z,75.09
2022-11-09T05:49:40.014Z,75.09
2022-11-09T05:50:39.875Z,75.09
2022-11-09T05:51:39.963Z,74.28
2022-11-09T05:52:39.916Z,73.80
2022-11-09T05:53:43.682Z,75.25
2022-11-09T05:54:41.837Z,73.15
2022-11-09T05:55:39.863Z,74.28
2022-11-09T05:56:39.847Z,72.51
2022-11-09T05:57:39.844Z,72.51
2022-11-09T05:58:39.918Z,75.09
2022-11-09T05:59:39.768Z,74.44
2022-11-09T06:00:39.804Z,75.09
2022-11-09T06:01:39.853Z,73.48
2022-11-09T06:02:39.840Z,73.80
2022-11-09T06:03:39.765Z,73.64
2022-11-09T06:04:39.728Z,74.93
2022-11-09T06:05:39.759Z,72.19
2022-11-09T06:06:39.927Z,73.32
2022-11-09T06:07:39.782Z,75.25
2022-11-09T06:08:39.699Z,76.05
2022-11-09T06:09:39.684Z,75.41
2022-11-09T06:10:39.677Z,74.12
2022-11-09T06:11:40.553Z,71.87
2022-11-09T06:12:39.676Z,73.64
2022-11-09T06:13:39.626Z,75.25
2022-11-09T06:14:39.630Z,75.09
2022-11-09T06:15:39.610Z,74.44
2022-11-09T06:16:39.647Z,75.57
2022-11-09T06:17:39.709Z,72.99
2022-11-09T06:18:39.578Z,73.96
2022-11-09T06:19:39.565Z,75.09
2022-11-09T06:20:39.594Z,76.22
2022-11-09T06:21:39.745Z,72.99
2022-11-09T06:22:39.570Z,75.57
2022-11-09T06:23:39.635Z,74.44
2022-11-09T06:24:39.493Z,72.03
2022-11-09T06:25:40.465Z,75.41
2022-11-09T06:26:39.509Z,72.83
2022-11-09T06:27:39.499Z,70.74
2022-11-09T06:28:39.451Z,75.25
2022-11-09T06:29:40.406Z,73.80
2022-11-09T06:30:39.462Z,74.77
2022-11-09T06:31:39.469Z,74.28
2022-11-09T06:32:39.442Z,75.41
2022-11-09T06:33:39.415Z,75.41
2022-11-09T06:34:39.423Z,76.05
2022-11-09T06:35:39.405Z,75.57
2022-11-09T06:36:40.458Z,76.38
2022-11-09T06:37:40.010Z,75.57
2022-11-09T06:38:40.447Z,73.64
2022-11-09T06:39:39.371Z,74.28
2022-11-09T06:40:39.386Z,75.73
2022-11-09T06:41:42.202Z,76.86
2022-11-09T06:42:40.395Z,73.64
2022-11-09T06:43:39.336Z,75.89
2022-11-09T06:44:39.357Z,76.54
2022-11-09T06:45:39.290Z,74.44
2022-11-09T06:46:39.290Z,72.99
2022-11-09T06:47:39.372Z,75.25
2022-11-09T06:48:39.272Z,74.28
2022-11-09T06:49:39.252Z,75.57
2022-11-09T06:50:39.228Z,73.96
2022-11-09T06:51:39.298Z,74.28
2022-11-09T06:52:39.908Z,74.77
2022-11-09T06:53:39.271Z,75.41
2022-11-09T06:54:39.182Z,75.09
2022-11-09T06:55:39.228Z,76.86
2022-11-09T06:56:39.556Z,73.48
2022-11-09T06:57:39.135Z,74.77
2022-11-09T06:58:39.196Z,70.58
2022-11-09T06:59:39.143Z,74.77
2022-11-09T07:00:39.121Z,75.25
2022-11-09T07:01:39.160Z,75.73
2022-11-09T07:02:40.999Z,76.38
2022-11-09T07:03:42.223Z,74.60
2022-11-09T07:04:41.299Z,72.99
2022-11-09T07:05:40.247Z,73.64
2022-11-09T07:06:39.647Z,76.54
2022-11-09T07:07:40.401Z,74.12
2022-11-09T07:08:39.072Z,72.67
2022-11-09T07:09:39.126Z,73.15
2022-11-09T07:10:39.373Z,74.93
2022-11-09T07:11:38.992Z,72.51
2022-11-09T07:12:39.019Z,75.57
2022-11-09T07:13:39.032Z,71.22
2022-11-09T07:14:38.960Z,73.15
2022-11-09T07:15:38.956Z,74.44
2022-11-09T07:16:38.952Z,75.25
2022-11-09T07:17:39.095Z,73.15
2022-11-09T07:18:38.933Z,70.42
2022-11-09T07:19:40.494Z,72.83
2022-11-09T07:20:40.311Z,74.44
2022-11-09T07:21:42.551Z,76.22
2022-11-09T07:22:39.538Z,74.93
2022-11-09T07:23:41.232Z,74.28
2022-11-09T07:24:42.153Z,72.83
2022-11-09T07:25:40.133Z,73.48
2022-11-09T07:26:41.735Z,68.00
2022-11-09T07:27:43.253Z,71.22
2022-11-09T07:28:43.726Z,72.51
2022-11-09T07:29:39.963Z,70.42
2022-11-09T07:30:39.293Z,74.44
2022-11-09T07:31:40.433Z,69.45
2022-11-09T07:33:08.469Z,73.48
2022-11-09T07:33:41.689Z,71.22
2022-11-09T07:34:38.761Z,72.99
2022-11-09T07:35:43.032Z,75.57
2022-11-09T07:36:41.529Z,74.28
2022-11-09T07:37:40.605Z,75.73
2022-11-09T07:38:41.080Z,71.22
2022-11-09T07:39:39.497Z,73.15
2022-11-09T07:40:41.894Z,73.64
2022-11-09T07:41:40.910Z,74.77
2022-11-09T07:42:41.401Z,75.25
2022-11-09T07:43:40.570Z,72.67
2022-11-09T07:44:39.957Z,74.28
2022-11-09T07:45:40.102Z,71.06
2022-11-09T07:46:39.893Z,72.51
2022-11-09T07:47:41.479Z,74.12
2022-11-09T07:48:38.565Z,72.35
2022-11-09T07:49:38.773Z,72.35
2022-11-09T07:50:38.907Z,74.60
2022-11-09T07:51:39.906Z,72.19
2022-11-09T07:52:39.273Z,75.09
2022-11-09T07:53:38.582Z,73.96
2022-11-09T07:54:39.554Z,67.51
2022-11-09T07:55:38.561Z,69.13
2022-11-09T07:56:38.552Z,72.83
2022-11-09T07:57:38.519Z,72.51
2022-11-09T07:58:38.549Z,73.48
2022-11-09T07:59:38.626Z,70.90
2022-11-09T08:00:38.463Z,71.06
2022-11-09T08:01:38.563Z,73.48
2022-11-09T08:02:38.466Z,69.93
2022-11-09T08:03:38.534Z,73.48
2022-11-09T08:04:38.406Z,68.48
2022-11-09T08:05:39.305Z,68.16
2022-11-09T08:06:40.077Z,70.09
2022-11-09T08:07:42.411Z,71.54
2022-11-09T08:08:39.017Z,72.67
2022-11-09T08:09:40.724Z,70.42
2022-11-09T08:10:38.547Z,73.32
2022-11-09T08:11:38.322Z,72.35
2022-11-09T08:12:38.383Z,70.90
2022-11-09T08:13:38.372Z,74.28
2022-11-09T08:14:38.301Z,73.64
2022-11-09T08:15:38.348Z,70.90
2022-11-09T08:16:38.375Z,69.93
2022-11-09T08:17:38.253Z,72.83
2022-11-09T08:18:38.305Z,71.87
2022-11-09T08:19:38.301Z,72.99
2022-11-09T08:20:38.257Z,69.61
2022-11-09T08:21:38.259Z,71.38
2022-11-09T08:22:38.534Z,69.61
2022-11-09T08:23:38.214Z,72.35
2022-11-09T08:24:38.265Z,69.93
2022-11-09T08:25:38.311Z,71.87
2022-11-09T08:26:38.218Z,73.96
2022-11-09T08:27:38.297Z,73.80
2022-11-09T08:28:38.237Z,72.35
2022-11-09T08:29:38.167Z,73.15
2022-11-09T08:30:38.246Z,72.99
2022-11-09T08:31:38.112Z,65.10
2022-11-09T08:32:38.553Z,72.83
2022-11-09T08:33:38.135Z,71.38
2022-11-09T08:34:38.176Z,71.54
2022-11-09T08:35:38.098Z,74.44
2022-11-09T08:36:38.090Z,68.80
2022-11-09T08:37:38.378Z,72.19
2022-11-09T08:38:38.119Z,74.12
2022-11-09T08:39:38.051Z,73.64
2022-11-09T08:40:38.100Z,72.51
2022-11-09T08:41:38.063Z,73.96
2022-11-09T08:42:37.983Z,69.77
2022-11-09T08:43:39.431Z,71.22
2022-11-09T08:44:37.998Z,73.80
2022-11-09T08:45:37.959Z,73.48
2022-11-09T08:46:41.196Z,73.48
2022-11-09T08:47:38.976Z,72.51
2022-11-09T08:48:37.978Z,74.28
2022-11-09T08:49:38.071Z,69.45
2022-11-09T08:50:37.924Z,69.13
2022-11-09T08:51:37.919Z,72.99
2022-11-09T08:52:37.922Z,71.22
2022-11-09T08:53:38.197Z,71.22
2022-11-09T08:54:37.850Z,73.80
2022-11-09T08:55:37.865Z,72.67
2022-11-09T08:56:37.911Z,72.35
2022-11-09T08:57:38.101Z,71.54
2022-11-09T08:58:37.971Z,72.19
2022-11-09T08:59:37.827Z,70.42
2022-11-09T09:00:37.791Z,66.06
2022-11-09T09:01:37.966Z,70.09
2022-11-09T09:02:37.872Z,69.77
2022-11-09T09:03:37.765Z,72.67
2022-11-09T09:04:37.792Z,68.00
2022-11-09T09:05:37.711Z,69.77
2022-11-09T09:06:38.236Z,71.06
2022-11-09T09:07:37.919Z,70.58
2022-11-09T09:08:37.747Z,70.74
2022-11-09T09:09:37.720Z,71.54
2022-11-09T09:10:37.689Z,73.32
2022-11-09T09:11:37.807Z,73.64
2022-11-09T09:12:38.688Z,72.19
2022-11-09T09:13:42.874Z,73.32
2022-11-09T09:14:39.825Z,73.15
2022-11-09T09:15:37.608Z,72.67
2022-11-09T09:16:37.660Z,73.64
2022-11-09T09:17:37.622Z,69.13
2022-11-09T09:18:37.633Z,73.32
2022-11-09T09:19:37.809Z,70.90
2022-11-09T09:20:37.690Z,74.12
2022-11-09T09:21:37.584Z,74.28
2022-11-09T09:22:37.534Z,70.74
2022-11-09T09:23:37.581Z,70.90
2022-11-09T09:24:37.565Z,67.03
2022-11-09T09:25:37.627Z,70.25
2022-11-09T09:26:37.561Z,72.67
2022-11-09T09:27:37.512Z,71.87
2022-11-09T09:28:37.783Z,70.74
2022-11-09T09:29:37.565Z,70.25
2022-11-09T09:30:37.508Z,70.74
2022-11-09T09:31:37.485Z,71.54
2022-11-09T09:32:37.444Z,74.12
2022-11-09T09:33:37.425Z,74.28
2022-11-09T09:34:37.538Z,72.83
2022-11-09T09:35:37.936Z,72.19
2022-11-09T09:36:37.357Z,68.48
2022-11-09T09:37:37.421Z,71.70
2022-11-09T09:38:37.409Z,70.74
2022-11-09T09:39:37.406Z,70.09
2022-11-09T09:40:37.349Z,73.80
2022-11-09T09:41:37.370Z,69.61
2022-11-09T09:42:37.298Z,70.90
2022-11-09T09:43:42.729Z,73.15
2022-11-09T09:44:39.074Z,66.87
2022-11-09T09:45:37.273Z,72.67
2022-11-09T09:46:37.441Z,70.74
2022-11-09T09:47:37.309Z,70.58
2022-11-09T09:48:37.285Z,69.77
2022-11-09T09:49:37.285Z,68.64
2022-11-09T09:50:38.007Z,72.35
2022-11-09T09:51:37.213Z,68.48
2022-11-09T09:52:37.210Z,72.19
2022-11-09T09:53:37.218Z,73.32
2022-11-09T09:54:37.280Z,70.42
2022-11-09T09:55:37.182Z,68.64
2022-11-09T09:56:37.299Z,68.64
2022-11-09T09:57:41.675Z,72.19
2022-11-09T09:58:39.196Z,72.99
2022-11-09T09:59:37.131Z,68.48
2022-11-09T10:00:37.146Z,72.03
2022-11-09T10:01:37.130Z,73.15
2022-11-09T10:02:37.899Z,68.48
2022-11-09T10:03:37.130Z,68.80
2022-11-09T10:04:37.120Z,73.80
2022-11-09T10:05:37.372Z,70.90
2022-11-09T10:06:37.210Z,70.25
2022-11-09T10:07:37.039Z,71.70
2022-11-09T10:08:37.177Z,68.96
2022-11-09T10:09:39.887Z,68.64
2022-11-09T10:10:37.024Z,71.22
2022-11-09T10:11:36.994Z,70.74
2022-11-09T10:12:36.959Z,72.19
2022-11-09T10:13:37.143Z,69.77
2022-11-09T10:14:36.943Z,72.51
2022-11-09T10:15:36.960Z,72.51
2022-11-09T10:16:36.934Z,72.03
2022-11-09T10:17:36.968Z,70.74
2022-11-09T10:18:37.405Z,71.87
2022-11-09T10:19:36.923Z,70.90
2022-11-09T10:20:36.916Z,71.06
2022-11-09T10:21:36.918Z,70.42
2022-11-09T10:22:36.901Z,71.87
2022-11-09T10:23:36.853Z,71.70
2022-11-09T10:24:41.194Z,72.83
2022-11-09T10:26:02.223Z,70.25
2022-11-09T10:26:39.091Z,72.19
2022-11-09T10:27:37.485Z,70.58
2022-11-09T10:28:54.672Z,71.70
2022-11-09T10:29:38.836Z,74.60
2022-11-09T10:30:36.764Z,70.74
2022-11-09T10:31:36.752Z,72.19
2022-11-09T10:32:37.664Z,70.09
2022-11-09T10:33:36.758Z,72.19
2022-11-09T10:34:36.686Z,69.61
2022-11-09T10:35:36.692Z,73.32
2022-11-09T10:36:37.522Z,73.80
2022-11-09T10:37:36.738Z,72.19
2022-11-09T10:38:36.686Z,69.45
2022-11-09T10:39:36.645Z,73.80
2022-11-09T10:40:36.809Z,69.45
2022-11-09T10:41:36.633Z,70.42
2022-11-09T10:42:36.659Z,69.77
2022-11-09T10:43:36.767Z,72.51
2022-11-09T10:44:36.578Z,70.74
2022-11-09T10:45:36.636Z,70.90
2022-11-09T10:46:36.553Z,69.93
2022-11-09T10:47:36.691Z,70.09
2022-11-09T10:48:36.574Z,71.22
2022-11-09T10:49:36.554Z,70.09
2022-11-09T10:50:36.535Z,69.29
2022-11-09T10:51:37.074Z,72.35
2022-11-09T10:52:36.579Z,72.19
2022-11-09T10:53:36.471Z,73.96
2022-11-09T10:54:36.474Z,71.87
2022-11-09T10:55:36.521Z,69.61
2022-11-09T10:56:47.227Z,68.80
2022-11-09T10:57:38.467Z,67.84
2022-11-09T10:58:36.408Z,72.83
2022-11-09T10:59:36.398Z,71.70
2022-11-09T11:00:36.714Z,70.09
2022-11-09T11:01:36.420Z,73.96
2022-11-09T11:02:37.774Z,70.74
2022-11-09T11:03:36.370Z,73.48
2022-11-09T11:04:36.342Z,71.87
2022-11-09T11:05:36.401Z,72.03
2022-11-09T11:06:36.417Z,70.74
2022-11-09T11:07:36.344Z,72.67
2022-11-09T11:08:36.320Z,71.70
2022-11-09T11:09:36.353Z,68.80
2022-11-09T11:10:36.836Z,73.64
2022-11-09T11:11:37.216Z,71.70
2022-11-09T11:12:37.261Z,71.70
2022-11-09T11:13:36.228Z,69.93
2022-11-09T11:14:36.224Z,70.09
2022-11-09T11:15:36.268Z,72.19
2022-11-09T11:16:36.249Z,66.55
2022-11-09T11:17:37.884Z,69.77
2022-11-09T11:18:36.165Z,69.93
2022-11-09T11:19:36.180Z,71.38
2022-11-09T11:20:36.154Z,73.64
2022-11-09T11:21:36.185Z,72.67
2022-11-09T11:22:36.107Z,70.58
2022-11-09T11:23:37.147Z,67.51
2022-11-09T11:24:36.107Z,71.06
2022-11-09T11:25:36.295Z,71.38
2022-11-09T11:26:36.295Z,71.70
2022-11-09T11:27:36.111Z,73.64
2022-11-09T11:28:36.089Z,72.99
2022-11-09T11:29:36.226Z,71.54
2022-11-09T11:30:36.047Z,71.06
2022-11-09T11:31:36.030Z,70.42
2022-11-09T11:32:35.999Z,72.99
2022-11-09T11:33:36.035Z,67.68
2022-11-09T11:34:59.094Z,71.38
2022-11-09T11:35:38.000Z,73.48
2022-11-09T11:36:35.953Z,67.84
2022-11-09T11:37:35.987Z,73.32
2022-11-09T11:38:35.960Z,73.96
2022-11-09T11:39:35.914Z,70.25
2022-11-09T11:40:36.098Z,71.54
2022-11-09T11:41:35.902Z,71.06
2022-11-09T11:42:35.903Z,72.83
2022-11-09T11:43:36.310Z,73.64
2022-11-09T11:44:35.960Z,72.03
2022-11-09T11:45:40.771Z,70.58
2022-11-09T11:46:37.840Z,69.13
2022-11-09T11:47:35.801Z,70.42
2022-11-09T11:48:35.863Z,74.77
2022-11-09T11:49:35.800Z,71.22
2022-11-09T11:50:35.954Z,72.35
2022-11-09T11:51:35.779Z,70.58
2022-11-09T11:52:36.635Z,70.74
2022-11-09T11:53:40.685Z,73.64
2022-11-09T11:54:37.713Z,72.35
2022-11-09T11:55:35.746Z,74.28
2022-11-09T11:56:35.773Z,73.15
2022-11-09T11:57:35.705Z,73.48
2022-11-09T11:58:36.044Z,73.80
2022-11-09T11:59:35.675Z,70.09
2022-11-09T12:00:36.153Z,71.54
2022-11-09T12:02:08.069Z,72.51
2022-11-09T12:02:36.589Z,73.64
2022-11-09T12:03:35.660Z,72.67
2022-11-09T12:05:10.420Z,69.45
2022-11-09T12:05:35.618Z,73.48
2022-11-09T12:06:37.195Z,72.99
2022-11-09T12:07:35.591Z,74.44
2022-11-09T12:08:35.677Z,70.74
2022-11-09T12:09:35.699Z,70.09
2022-11-09T12:10:35.566Z,71.87
2022-11-09T12:11:36.094Z,67.68
2022-11-09T12:12:36.491Z,72.99
2022-11-09T12:14:08.942Z,74.12
2022-11-09T12:15:07.919Z,72.19
2022-11-09T12:15:35.493Z,71.70
2022-11-09T12:16:35.498Z,73.64
2022-11-09T12:17:37.075Z,75.73
2022-11-09T12:18:36.240Z,72.51
2022-11-09T12:19:36.078Z,72.51
2022-11-09T12:20:36.493Z,69.93
2022-11-09T12:21:35.481Z,72.03
2022-11-09T12:22:35.421Z,69.13
2022-11-09T12:23:35.538Z,72.51
2022-11-09T12:24:35.402Z,74.44
2022-11-09T12:25:35.419Z,72.19
2022-11-09T12:26:35.396Z,70.58
2022-11-09T12:27:35.408Z,72.51
2022-11-09T12:28:35.414Z,74.44
2022-11-09T12:29:35.391Z,74.44
2022-11-09T12:30:35.642Z,74.28
2022-11-09T12:31:35.331Z,74.44
2022-11-09T12:32:35.359Z,73.32
2022-11-09T12:33:39.357Z,71.87
2022-11-09T12:34:39.312Z,74.60
2022-11-09T12:35:36.144Z,72.51
2022-11-09T12:36:35.370Z,72.51
2022-11-09T12:37:35.257Z,73.48
2022-11-09T12:38:35.250Z,73.64
2022-11-09T12:39:35.352Z,71.22
2022-11-09T12:40:35.240Z,72.51
2022-11-09T12:41:35.315Z,73.15
2022-11-09T12:42:35.201Z,72.99
2022-11-09T12:43:35.188Z,72.83
2022-11-09T12:44:35.159Z,72.99
2022-11-09T12:45:35.148Z,73.15
2022-11-09T12:46:35.197Z,72.19
2022-11-09T12:47:35.200Z,73.96
2022-11-09T12:48:35.113Z,72.51
2022-11-09T12:49:35.253Z,74.44
2022-11-09T12:50:35.092Z,72.99
2022-11-09T12:51:35.537Z,72.35
2022-11-09T12:52:35.128Z,77.02